août
21

MX FIM – GP D’ANGLETERRE : INFOS ET RÉSULTATS

MX1 – Free Practice – Classification
Pos Nr Rider Nat. Fed. Bike Bestlaptime in lap Diff. First Diff. Prev. Tot. Laps Speed
1 377 Pourcel, Christophe FRA FFM Kawasaki 2:00.750 8 0:00.000 0:00.000 9 48.894

2 222 Cairoli, Antonio ITA FMI KTM 2:01.253 9 0:00.503 0:00.503 10 48.692
3 999 Goncalves, Rui POR FMP Honda 2:01.791 7 0:01.041 0:00.538 11 48.476
4 7 Barragan, Jonathan ESP RFME Kawasaki 2:01.860 11 0:01.110 0:00.069 11 48.449
5 6 Leok, Tanel EST EMF TM 2:01.926 6 0:01.176 0:00.066 11 48.423
6 24 Simpson, Shaun GBR ACU Honda 2:02.220 9 0:01.470 0:00.294 10 48.306
7 20 Aranda, Gregory FRA FFM Kawasaki 2:02.246 11 0:01.496 0:00.026 11 48.296
8 121 Boog, Xavier FRA FFM Kawasaki 2:02.373 10 0:01.623 0:00.127 10 48.246

9 22 Strijbos, Kevin BEL FMB Suzuki 2:02.714 7 0:01.964 0:00.341 11 48.112
10 54 Anderson, Brad GBR ACU Honda 2:03.133 8 0:02.383 0:00.419 9 47.948
11 115 Campano Jimenez, Carlos ESP RFME Yamaha 2:03.748 7 0:02.998 0:00.615 12 47.71
12 50 Barr, Martin GBR MCUI KTM 2:03.760 7 0:03.010 0:00.012 11 47.705
13 12 Mackenzie, Billy GBR ACU Kawasaki 2:03.766 6 0:03.016 0:00.006 10 47.703
14 10 Boissiere, Anthony FRA FFM Yamaha 2:04.725 6 0:03.975 0:00.959 11 47.336
15 141 Church, Tom GBR ACU KTM 2:04.865 6 0:04.115 0:00.140 9 47.283
16 13 Monni, Manuel ITA FMI Honda 2:04.896 10 0:04.146 0:00.031 11 47.271
17 142 Parker, Nathan GBR ACU KTM 2:05.323 10 0:04.573 0:00.427 10 47.11
18 39 Guarneri, Davide ITA FMI Kawasaki 2:05.397 8 0:04.647 0:00.074 10 47.082
19 183 Frossard, Steven FRA FFM Yamaha 2:05.453 9 0:04.703 0:00.056 12 47.061
20 287 Schiffer, Marcus GER DMSB Suzuki 2:05.638 6 0:04.888 0:00.185 11 46.992
21 2 Nagl, Maximilian GER DMSB KTM 2:05.653 8 0:04.903 0:00.015 10 46.987
22 37 Krestinov, Gert EST EMF Kawasaki 2:05.940 10 0:05.190 0:00.287 10 46.879
23 41 Smith, Alfie GBR ACU Aprilia 2:06.716 11 0:05.966 0:00.776 12 46.592
24 52 Walkner, Matthias AUT OeAMTC KTM 2:07.037 7 0:06.287 0:00.321 11 46.475
25 74 Steinbergs, Ivo LAT LAMSF Kawasaki 2:07.499 9 0:06.749 0:00.462 10 46.306
26 82 Snow, Alex GBR ACU Kawasaki 2:07.558 7 0:06.808 0:00.059 7 46.285
27 67 Tiainen, Santtu FIN SML Kawasaki 2:07.648 8 0:06.898 0:00.090 13 46.252
28 61 Brakke, Herjan NED KNMV Yamaha 2:08.153 10 0:07.403 0:00.505 11 46.07
29 49 Schmidinger, Günter AUT OeAMTC Honda 2:08.445 10 0:07.695 0:00.292 10 45.965
30 45 Leonce, Loic FRA FFM Aprilia 2:10.602 7 0:09.852 0:02.157 10 45.206
31 127 Eriksson, Toni FIN SML Kawasaki 2:11.004 12 0:10.254 0:00.402 14 45.067

SAMEDI / MANCHE QUALIFICATIVE MX1

Holeshot de Xavier Boog..! Frossard second suivi par Christophe Pourcel.. Frossard passe Boog à 17 min de la fin de manche.. Pourcel passe en tête à 12 min.. Frossard repasse Pourcel à 9 min, Pourcel le repasse.. Cairoli passe Boog à l’approche des 2 derniers tours.. Leok passe Boog dans les 2 derniers tours..

# RIDER BIKE TIME GAP PREV GAP FIRST BEST LAP LAST LAPS
1 C. Pourcel (377) KAW 25:02,317 02:03,440 9: 02:04,472 10: 02:05,299 11: 02:07,259

2 S. Frossard (183) YAM 25:04,312 +00:01,995 +00:01,995 02:03,846 9: 02:04,296 10: 02:05,076 11: 02:08,047
3 A. Cairoli (222) KTM 25:18,405 +00:14,093 +00:16,088 02:05,402 9: 02:06,237 10: 02:06,606 11: 02:05,402
4 T. Leok (6) TM 25:19,227 +00:00,822 +00:16,910 02:04,848 9: 02:06,233 10: 02:06,018 11: 02:04,848
5 X. Boog (121) KAW 25:26,123 +00:06,896 +00:23,806 02:06,197 9: 02:07,851 10: 02:09,269 11: 02:09,405
6 D. Guarneri (39) KAW 25:31,809 +00:05,686 +00:29,492 02:05,942 9: 02:06,826 10: 02:08,772 11: 02:12,372
7 B. Mackenzie (12) KAW 25:32,959 +00:01,150 +00:30,642 02:06,492 9: 02:07,026 10: 02:08,713 11: 02:08,013
8 K. Strijbos (22) SUZ 25:33,573 +00:00,614 +00:31,256 02:06,346 9: 02:06,447 10: 02:08,485 11: 02:06,830
9 R. Goncalves (999) HON 25:34,828 +00:01,255 +00:32,511 02:06,572 9: 02:06,572 10: 02:09,047 11: 02:08,852
10 J. Barragan (7) KAW 25:37,294 +00:02,466 +00:34,977 02:06,045 9: 02:06,611 10: 02:07,997 11: 02:09,154
11 S. Simpson (24) HON 25:40,982 +00:03,688 +00:38,665 02:06,550 9: 02:07,657 10: 02:07,741 11: 02:08,914
12 M. Nagl (2) KTM 25:43,813 +00:02,831 +00:41,496 02:07,023 9: 02:07,963 10: 02:08,520 11: 02:09,999
13 C. C. Jimenez (115) YAM 26:05,217 +00:21,404 +01:02,900 02:06,449 9: 02:22,239 10: 02:11,441 11: 02:12,763
14 G. Aranda (20) KAW 26:08,090 +00:02,873 +01:05,773 02:07,358 9: 02:08,698 10: 02:08,805 11: 02:10,910
15 B. Anderson (54) HON 26:12,620 +00:04,530 +01:10,303 02:09,183 9: 02:09,183 10: 02:10,085 11: 02:09,516
16 A. Boissiere (10) YAM 26:15,195 +00:02,575 +01:12,878 02:09,136 9: 02:10,262 10: 02:09,756 11: 02:10,216
17 M. Barr (50) KTM 26:24,036 +00:08,841 +01:21,719 02:09,766 9: 02:09,779 10: 02:11,490 11: 02:12,459
18 H. Brakke (61) YAM 24:17,195 -1 lap -1 lap 02:09,911 8: 02:12,875 9: 02:11,801 10: 02:12,461
19 M. Schiffer (287) SUZ 24:19,235 -1 lap -1 lap 02:10,208 8: 02:13,384 9: 02:12,631 10: 02:11,159
20 M. Monni (13) HON 24:20,771 -1 lap -1 lap 02:09,700 8: 02:13,315 9: 02:13,724 10: 02:10,885
21 G. Schmidinger (49) HON 24:22,585 -1 lap -1 lap 02:11,487 8: 02:13,180 9: 02:13,039 10: 02:12,120
22 A. Smith (41) APR 24:29,598 -1 lap -1 lap 02:11,642 8: 02:11,748 9: 02:11,726 10: 02:12,455
23 A. Snow (82) KAW 24:31,314 -1 lap -1 lap 02:11,064 8: 02:11,476 9: 02:12,393 10: 02:12,412
24 G. Krestinov (37) KAW 24:35,638 -1 lap -1 lap 02:11,514 8: 02:12,492 9: 02:13,094 10: 02:13,291
25 M. Walkner (52) KTM 24:37,577 -1 lap -1 lap 02:11,497 8: 02:12,452 9: 02:13,775 10: 02:12,783
26 N. Parker (29) KTM 24:41,504 -1 lap -1 lap 02:11,976 8: 02:13,009 9: 02:13,125 10: 02:14,353
27 I. Steinbergs (74) KAW 24:43,479 -1 lap -1 lap 02:12,783 8: 02:15,011 9: 02:13,680 10: 02:14,910
28 T. Church (141) KTM 24:54,864 -1 lap -1 lap 02:10,139 8: 02:15,330 9: 02:13,132 10: 02:16,610
29 T. Eriksson (127) KAW 24:59,674 -1 lap -1 lap 02:12,896 8: 02:14,841 9: 02:15,431 10: 02:16,272
30 S. Tiainen (67) KAW 25:06,168 -1 lap -1 lap 02:14,444 8: 02:15,592 9: 02:15,069 10: 02:18,022
31 L. Leonce (45)..

DIMANCHE

MX1 – Warm-up – Classification
Pos Nr Rider Nat. Fed. Bike Bestlaptime in lap Diff. First Diff. Prev. Tot. Laps Speed

1 7 Barragan, Jonathan ESP RFME Kawasaki 2:06.015 7 0:00.000 0:00.000 8 46.852
2 6 Leok, Tanel EST EMF TM 2:06.334 6 0:00.319 0:00.319 7 46.733
3 999 Goncalves, Rui POR FMP Honda 2:06.390 5 0:00.375 0:00.056 7 46.713
4 222 Cairoli, Antonio ITA FMI KTM 2:06.733 4 0:00.718 0:00.343 5 46.586
5 54 Anderson, Brad GBR ACU Honda 2:06.920 6 0:00.905 0:00.187 6 46.517
6 20 Aranda, Gregory FRA FFM Kawasaki 2:07.236 6 0:01.221 0:00.316 7 46.402
7 12 Mackenzie, Billy GBR ACU Kawasaki 2:07.364 4 0:01.349 0:00.128 4 46.355
8 121 Boog, Xavier FRA FFM Kawasaki 2:07.445 6 0:01.430 0:00.081 6 46.326
9 24 Simpson, Shaun GBR ACU Honda 2:08.024 4 0:02.009 0:00.579 5 46.116
10 22 Strijbos, Kevin BEL FMB Suzuki 2:08.920 6 0:02.905 0:00.896 8 45.796
11 377 Pourcel, Christophe FRA FFM Kawasaki 2:09.238 4 0:03.223 0:00.318 5 45.683
12 141 Church, Tom GBR ACU KTM 2:09.422 7 0:03.407 0:00.184 7 45.618
13 115 Campano Jimenez, Carlos ESP RFME Yamaha 2:09.604 5 0:03.589 0:00.182 6 45.554
14 10 Boissiere, Anthony FRA FFM Yamaha 2:09.981 5 0:03.966 0:00.377 6 45.422
15 50 Barr, Martin GBR MCUI KTM 2:11.053 5 0:05.038 0:01.072 6 45.05
16 13 Monni, Manuel ITA FMI Honda 2:11.200 4 0:05.185 0:00.147 7 45
17 52 Walkner, Matthias AUT OeAMTC KTM 2:11.749 4 0:05.734 0:00.549 6 44.812
18 2 Nagl, Maximilian GER DMSB KTM 2:11.989 5 0:05.974 0:00.240 6 44.731
19 183 Frossard, Steven FRA FFM Yamaha 2:12.213 4 0:06.198 0:00.224 6 44.655
20 37 Krestinov, Gert EST EMF Kawasaki 2:12.364 4 0:06.349 0:00.151 6 44.604
21 142 Parker, Nathan GBR ACU KTM 2:12.440 5 0:06.425 0:00.076 6 44.579
22 45 Leonce, Loic FRA FFM Aprilia 2:12.966 5 0:06.951 0:00.526 6 44.402
23 61 Brakke, Herjan NED KNMV Yamaha 2:13.488 6 0:07.473 0:00.522 7 44.229
24 49 Schmidinger, Günter AUT OeAMTC Honda 2:13.764 6 0:07.749 0:00.276 6 44.137
25 287 Schiffer, Marcus GER DMSB Suzuki 2:13.787 6 0:07.772 0:00.023 7 44.13
26 82 Snow, Alex GBR ACU Kawasaki 2:14.020 5 0:08.005 0:00.233 6 44.053
27 74 Steinbergs, Ivo LAT LAMSF Kawasaki 2:14.153 2 0:08.138 0:00.133 7 44.009
28 41 Smith, Alfie GBR ACU Aprilia 2:14.301 5 0:08.286 0:00.148 8 43.961
29 127 Eriksson, Toni FIN SML Kawasaki 2:14.405 6 0:08.390 0:00.104 6 43.927
30 39 Guarneri, Davide ITA FMI Kawasaki 2:18.358 6 0:12.343 0:03.953 6 42.672
31 67 Tiainen, Santtu FIN SML Kawasaki 2:30.716 4 0:24.701 0:12.358 6 39.173

1 ÈRE MANCHE MX1

Holeshot de Steven Frossard, Christophe Pourcel second.. Strijbos rentre dans les pits afin de changer de lunettes.. Cairoli passe Gonçalves à 17 min.. Grosse bagarre entre Leok et Gonçalves à 11 min de la fin de manche.. La Moto de Frossard cale à 1 min + 2 tours de la fin suite à un problème mécanique..! Pourcel passe en tête..

Remarque : gardons à l’esprit qu’il manque entre autres 2 Pilotes très rapides Desalle et Bobryshev (ainsi que Ramon et De Dycker..), le classement de cette première manche n’aurait donc sans doute pas été le même en leur présence..

MX1 – Grand Prix Race 1 – Classification
Pos Nr Rider Nat. Fed. Bike Time laps Diff. First Diff. Prev. Bestlaptime in lap Speed
1 377 Pourcel, Christophe FRA FFM Kawasaki 40:35.710 18 0:00.000 0:00.000 2:06.957 5 46.504
2 183 Frossard, Steven FRA FFM Yamaha 40:37.908 18 0:02.198 0:02.198 2:06.300 16 46.746

3 222 Cairoli, Antonio ITA FMI KTM 40:45.202 18 0:09.492 0:07.294 2:07.113 9 46.447
4 6 Leok, Tanel EST EMF TM 40:47.078 18 0:11.368 0:01.876 2:06.718 5 46.592
5 2 Nagl, Maximilian GER DMSB KTM 41:03.933 18 0:28.223 0:16.855 2:07.084 7 46.457
6 999 Goncalves, Rui POR FMP Honda 41:21.223 18 0:45.513 0:17.290 2:07.714 2 46.228
7 12 Mackenzie, Billy GBR ACU Kawasaki 41:23.919 18 0:48.209 0:02.696 2:08.436 7 45.968
8 39 Guarneri, Davide ITA FMI Kawasaki 41:26.521 18 0:50.811 0:02.602 2:07.905 4 46.159
9 54 Anderson, Brad GBR ACU Honda 41:28.896 18 0:53.186 0:02.375 2:08.582 2 45.916
10 10 Boissiere, Anthony FRA FFM Yamaha 41:31.723 18 0:56.013 0:02.827 2:09.025 2 45.759
11 121 Boog, Xavier FRA FFM Kawasaki 41:32.456 18 0:56.746 0:00.733 2:07.982 11 46.131
12 20 Aranda, Gregory FRA FFM Kawasaki 41:35.988 18 1:00.278 0:03.532 2:09.729 4 45.51

13 22 Strijbos, Kevin BEL FMB Suzuki 41:39.711 18 1:04.001 0:03.723 2:07.508 10 46.303
14 7 Barragan, Jonathan ESP RFME Kawasaki 41:59.242 18 1:23.532 0:19.531 2:09.130 11 45.721
15 115 Campano Jimenez, Carlos ESP RFME Yamaha 42:01.438 18 1:25.728 0:02.196 2:09.339 7 45.647
16 24 Simpson, Shaun GBR ACU Honda 42:06.465 18 1:30.755 0:05.027 2:08.819 5 45.832
17 141 Church, Tom GBR ACU KTM 42:18.059 18 1:42.349 0:11.594 2:10.096 3 45.382
18 50 Barr, Martin GBR MCUI KTM 42:22.851 18 1:47.141 0:04.792 2:10.661 8 45.186
19 13 Monni, Manuel ITA FMI Honda 42:24.102 18 1:48.392 0:01.251 2:10.699 14 45.172
20 37 Krestinov, Gert EST EMF Kawasaki 42:24.745 18 1:49.035 0:00.643 2:12.603 3 44.524
21 49 Schmidinger, Günter AUT OeAMTC Honda 42:26.502 18 1:50.792 0:01.757 2:12.257 6 44.64
22 287 Schiffer, Marcus GER DMSB Suzuki 42:26.558 18 1:50.848 0:00.056 2:12.095 4 44.695
23 52 Walkner, Matthias AUT OeAMTC KTM 42:28.150 18 1:52.440 0:01.592 2:11.483 14 44.903
24 82 Snow, Alex GBR ACU Kawasaki 41:15.616 17 1 lap 1 lap 2:14.807 11 43.796
25 61 Brakke, Herjan NED KNMV Yamaha 41:37.949 17 1 lap 0:22.333 2:15.000 2 43.733
26 45 Leonce, Loic FRA FFM Aprilia 41:48.110 17 1 lap 0:10.161 2:14.305 7 43.96..

2 ÈME MANCHE MX1

Holeshot de Simspon.. Chute de Christophe Pourcel quelques tours plus tard..! (il sautera trop court sur un saut et se fera éjecter de la moto..), il abandonne.. Frossard passe en tête à 30 min de la fin de manche.. Antonio Cairoli part à la faute quelques minutes après.. Chute de Xavier Boog à 26 minutes de la fin, il semble souffrir au niveau du ventre.. Grosse chute de Billy Mac Kenzie qui retombe sur un saut sur l’arrière de la moto de Tanel Leok.. Drapeau rouge à 20 minutes de course afin d’évacuer Mac Kenzie.. Un nouveau départ est redonné 20 minutes plus tard, cellui-ci ne repend pas en compte les abandons lors de cette manche, c’est ce qu’on appelle « avoir de la chance » pour Christophe Pourcel qui se réaligne donc sur une grille départ « à zéro »..

Holeshot de Cairoli.. Christophe Pourcel second, Steven Frossard passe 3 Ème quelques tours plus loin.. Xavier Boog n’a pas repris le départ de la manche.. Steven Frossard passe Pourcel à 20 min de la fin de manche..

MX1 – Grand Prix Race 2 – Classification
Pos Nr Rider Nat. Fed. Bike Time laps Diff. First Diff. Prev. Bestlaptime in lap Speed

1 222 Cairoli, Antonio ITA FMI KTM 41:03.052 18 0:00.000 0:00.000 2:07.848 8 46.18
2 183 Frossard, Steven FRA FFM Yamaha 41:13.727 18 0:10.675 0:10.675 2:07.107 2 46.449
3 377 Pourcel, Christophe FRA FFM Kawasaki 41:30.652 18 0:27.600 0:16.925 2:08.584 3 45.916

4 7 Barragan, Jonathan ESP RFME Kawasaki 41:38.076 18 0:35.024 0:07.424 2:09.077 10 45.74
5 2 Nagl, Maximilian GER DMSB KTM 41:42.926 18 0:39.874 0:04.850 2:09.535 3 45.578
6 115 Campano Jimenez, Carlos ESP RFME Yamaha 41:45.578 18 0:42.526 0:02.652 2:09.086 7 45.737
7 54 Anderson, Brad GBR ACU Honda 41:48.168 18 0:45.116 0:02.590 2:09.760 7 45.499
8 22 Strijbos, Kevin BEL FMB Suzuki 41:56.746 18 0:53.694 0:08.578 2:09.666 3 45.532
9 10 Boissiere, Anthony FRA FFM Yamaha 42:13.261 18 1:10.209 0:16.515 2:10.587 12 45.211
10 24 Simpson, Shaun GBR ACU Honda 42:24.436 18 1:21.384 0:11.175 2:10.578 5 45.214
11 39 Guarneri, Davide ITA FMI Kawasaki 42:34.994 18 1:31.942 0:10.558 2:10.214 4 45.341
12 20 Aranda, Gregory FRA FFM Kawasaki 42:49.987 18 1:46.935 0:14.993 2:12.194 6 44.662
13 52 Walkner, Matthias AUT OeAMTC KTM 42:57.508 18 1:54.456 0:07.521 2:13.219 4 44.318
14 999 Goncalves, Rui POR FMP Honda 43:33.786 18 2:30.734 0:36.278 2:09.584 4 45.561
15 13 Monni, Manuel ITA FMI Honda 41:15.553 17 1 lap 1 lap 2:14.192 4 43.997
16 287 Schiffer, Marcus GER DMSB Suzuki 41:19.595 17 1 lap 0:04.042 2:14.943 4 43.752
17 49 Schmidinger, Günter AUT OeAMTC Honda 41:22.562 17 1 lap 0:02.967 2:14.736 4 43.819
18 37 Krestinov, Gert EST EMF Kawasaki 41:26.690 17 1 lap 0:04.128 2:15.889 4 43.447
19 61 Brakke, Herjan NED KNMV Yamaha 41:50.424 17 1 lap 0:23.734 2:16.591 4 43.224
20 82 Snow, Alex GBR ACU Kawasaki 42:00.271 17 1 lap 0:09.847 2:15.352 1 43.62
21 74 Steinbergs, Ivo LAT LAMSF Kawasaki 42:18.297 17 1 lap 0:18.026 2:16.335 4 43.305
22 45 Leonce, Loic FRA FFM Aprilia 42:54.753 17 1 lap 0:36.456 2:14.560 2 43.876
23 127 Eriksson, Toni FIN SML Kawasaki 41:11.177 15 3 laps 2 laps 2:17.432 3 42.959
24 141 Church, Tom GBR ACU KTM 27:03.725 10 8 laps 5 laps 2:17.346 4 42.986..

MX1 – GP Classification
Pos Nr Rider Nat. Fed. Bike Race 1 Race 2 Total

1 222 Cairoli, Antonio ITA FMI KTM 20 25 45
2 377 Pourcel, Christophe FRA FFM Kawasaki 25 20 45
3 183 Frossard, Steven FRA FFM Yamaha 22 22 44

4 2 Nagl, Maximilian GER DMSB KTM 16 16 32
5 54 Anderson, Brad GBR ACU Honda 12 14 26
6 7 Barragan, Jonathan ESP RFME Kawasaki 7 18 25
7 10 Boissiere, Anthony FRA FFM Yamaha 11 12 23
8 39 Guarneri, Davide ITA FMI Kawasaki 13 10 23
9 999 Goncalves, Rui POR FMP Honda 15 7 22
10 115 Campano Jimenez, Carlos ESP RFME Yamaha 6 15 21
11 22 Strijbos, Kevin BEL FMB Suzuki 8 13 21
12 20 Aranda, Gregory FRA FFM Kawasaki 9 9 18
13 6 Leok, Tanel EST EMF TM 18 0 18
14 24 Simpson, Shaun GBR ACU Honda 5 11 16
15 12 Mackenzie, Billy GBR ACU Kawasaki 14 0 14
16 121 Boog, Xavier FRA FFM Kawasaki 10 0 10
17 52 Walkner, Matthias AUT OeAMTC KTM 0 8 8
18 13 Monni, Manuel ITA FMI Honda 2 6 8
19 287 Schiffer, Marcus GER DMSB Suzuki 0 5 5
20 49 Schmidinger, Günter AUT OeAMTC Honda 0 4 4
21 37 Krestinov, Gert EST EMF Kawasaki 1 3 4
22 141 Church, Tom GBR ACU KTM 4 0 4
23 50 Barr, Martin GBR MCUI KTM 3 0 3
24 61 Brakke, Herjan NED KNMV Yamaha 0 2 2
25 82 Snow, Alex GBR ACU Kawasaki 0 1 1
26 74 Steinbergs, Ivo LAT LAMSF Kawasaki 0 0 0
27 45 Leonce, Loic FRA FFM Aprilia 0 0 0..

MX1 – World Championship Classification
Pos Nr Rider Nat. Total BUL NED USA BRA FRA POR ESP SWE GER LAT BEL CZE GBR EUR ITA
1 222 Cairoli, A. ITA 554 14-11 25-22 22-10 25-22 22-20 22-22 22-25 16-22 22-22 25-25 25-25 25-18 20-25 - - - -

2 183 Frossard, S. FRA 472 25-22 22-16 11-0 20-16 25-22 20-14 25-12 25-25 20-6 22-22 18-15 16-9 22-22 - - - -
3 25 Desalle, C. BEL 461 22-25 16-15 25-25 18-18 10-25 25-25 16-20 13-14 16-20 13-13 22-18 22-25 - - - - - -
4 2 Nagl, M. GER 410 20-15 20-25 20-22 16-15 14-12 13-0 18-15 14-11 18-14 18-11 16-22 14-15 16-16 - - - -
5 777 Bobryshev, E. RUS 387 9-18 11-14 15-20 13-10 15-16 18-18 13-14 22-18 25-25 20-20 15-20 18-0 - - - - - -
6 999 Goncalves, Rui POR 371 13-16 15-18 9-18 11-8 7-18 14-20 14-11 12-13 14-18 14-18 20-8 20-20 15-7 - - - -
7 19 Philippaerts, D. ITA 308 18-7 18-20 16-12 22-25 20-3 0-0 20-18 6-20 12-13 16-16 14-12 - - - - - - - -
8 7 Barragan, J. ESP 279 15-20 7-11 12-13 4-12 6-15 8-13 12-16 0-12 13-15 0-10 12-7 10-11 7-18 - - - -
9 121 Boog, Xavier FRA 272 10-13 4-7 7-11 12-13 18-14 16-12 11-13 20-10 8-4 12-0 11-9 13-14 10-0 - - - -
10 9 de Dycker, Ken BEL 268 0-4 14-13 0-1 15-11 16-13 15-15 10-10 18-15 15-16 15-12 9-13 6-12 - - - - - -
11 6 Leok, Tanel EST 247 0-12 12-12 6-6 2-9 11-11 11-11 8-22 7-0 6-0 9-14 13-16 9-22 18-0 - - - -
12 11 Ramon, Steve BEL 229 11-9 13-9 0-14 14-20 9-4 6-16 15-9 15-16 11-12 11-15 - - - - - - - - - -
13 22 Strijbos, K. BEL 225 12-14 5-3 18-16 10-14 12-10 10-10 4-5 9-9 0-0 4-0 5-6 15-13 8-13 - - - -
14 24 Simpson, Shaun GBR 186 8-5 1-4 5-15 8-3 8-9 9-9 5-0 0-5 10-9 6-6 10-14 11-10 5-11 - - - -
15 10 Boissiere, A. FRA 177 6-8 6-8 14-9 9-0 5-8 0-8 7-8 10-6 0-7 8-8 8-3 0-8 11-12 - - - -
16 39 Guarneri, D. ITA 162 16-10 9-10 8-5 - - 2-5 12-0 9-0 0-8 9-0 10-9 0-0 12-5 13-10 - - - -
17 20 Aranda, G. FRA 84 - - - - 4-7 7-5 0-7 0-0 - - 11-0 5-8 7-0 0-0 5-0 9-9 - - - -
18 115 Campano Jimenez, C. ESP 83 5-6 0-0 3-2 0-0 - - 4-7 3-6 5-3 0-1 0-7 2-0 4-4 6-15 - - - -
19 377 Pourcel, C. FRA 69 - - - - - - - - - - - - - - - - 0-0 - - - - 8-16 25-20 - - - -..

MX2 – Free Practice – Classification
Pos Nr Rider Nat. Fed. Bike Bestlaptime in lap Diff. First Diff. Prev. Tot. Laps Speed
1 37 Teillet, Valentin FRA FFM Suzuki 2:01.434 9 0:00.000 0:00.000 12 48.619
2 21 Paulin, Gautier FRA MCM Yamaha 2:01.903 11 0:00.469 0:00.469 11 48.432

3 84 Herlings, Jeffrey NED KNMV KTM 2:02.656 10 0:01.222 0:00.753 12 48.135
4 7 Tonus, Arnaud SUI FMS Yamaha 2:02.781 9 0:01.347 0:00.125 12 48.086
5 100 Searle, Tommy GBR ACU Kawasaki 2:03.389 6 0:01.955 0:00.608 11 47.849
6 89 van Horebeek, Jeremy BEL FMB KTM 2:03.594 9 0:02.160 0:00.205 9 47.769
7 45 Nicholls, Jake GBR ACU KTM 2:03.642 8 0:02.208 0:00.048 9 47.751
8 131 Aubin, Nicolas FRA FFM KTM 2:04.315 9 0:02.881 0:00.673 12 47.492
9 94 Roczen, Ken GER DMSB KTM 2:04.847 10 0:03.413 0:00.532 12 47.29
10 911 Tixier, Jordi FRA FFM KTM 2:04.917 11 0:03.483 0:00.070 14 47.263
11 34 Roelants, Joel BEL FMB KTM 2:05.200 10 0:03.766 0:00.283 11 47.157
12 99 Anstie, Max GBR AMA Kawasaki 2:06.141 5 0:04.707 0:00.941 10 46.805
13 152 Petrov, Petar BUL BMF Yamaha 2:06.260 13 0:04.826 0:00.119 13 46.761
14 76 Rauchenecker, Pascal AUT OeAMTC KTM 2:06.335 10 0:04.901 0:00.075 13 46.733
15 430 Charlier, Christophe FRA FFM Yamaha 2:06.484 8 0:05.050 0:00.149 10 46.678
16 590 Triest, Nick BEL FMB KTM 2:07.349 10 0:05.915 0:00.865 11 46.361
17 17 Butron Oliva, Antonio Jose ESP RFME KTM 2:08.002 9 0:06.568 0:00.653 11 46.124
18 44 Banks-Browne, Elliott GBR ACU Honda 2:08.070 9 0:06.636 0:00.068 10 46.1
19 128 Monticelli, Ivo ITA FMI Honda 2:08.361 10 0:06.927 0:00.291 12 45.995
20 33 Lieber, Julien BEL MUL KTM 2:08.365 9 0:06.931 0:00.004 12 45.994
21 55 Kras, Mike NED KNMV Suzuki 2:08.568 9 0:07.134 0:00.203 13 45.921
22 195 Justs, Roberts LAT LAMSF Honda 2:08.689 11 0:07.255 0:00.121 12 45.878
23 151 Kullas, Harri FIN SML Yamaha 2:08.964 7 0:07.530 0:00.275 14 45.78
24 262 Del Segato, Giacomo ITA FMI KTM 2:09.469 10 0:08.035 0:00.505 12 45.602
25 68 Adam, David FRA FFM Yamaha 2:09.515 3 0:08.081 0:00.046 11 45.585
26 112 Heibye, Even NOR NMF KTM 2:09.621 6 0:08.187 0:00.106 13 45.548
27 64 Bengtsson, Filip SWE SVEMO KTM 2:09.715 12 0:08.281 0:00.094 12 45.515
28 388 Söderberg, Ludvig FIN SML Kawasaki 2:10.143 11 0:08.709 0:00.428 12 45.365
29 860 Cottrell, James GBR ACU Honda 2:10.520 9 0:09.086 0:00.377 13 45.234
30 162 Edmonds, Stuart IRL MCUI TM 2:11.990 8 0:10.556 0:01.470 9 44.731
31 114 Booker, Jordan GBR ACU KTM 2:12.090 9 0:10.656 0:00.100 11 44.697
32 66 Tombs, Lewis GBR ACU Honda 2:12.252 12 0:10.818 0:00.162 12 44.642
33 550 Mitchell, Sean ZIM ZMSF KTM 2:12.843 12 0:11.409 0:00.591 12 44.443
34 611 Cociu, Mihail MDA FRM Honda 2:16.524 9 0:15.090 0:03.681 10 43.245
35 300 Golovkin, Viacheslav RUS LAMSF Kawasaki 2:16.893 12 0:15.459 0:00.369 12 43.129
36 14 Strydom, Damon GBR ACU KTM 2:22.172 4 0:20.738 0:05.279 12 41.527

SAMEDI / MANCHE QUALIFICATIVE MX2

Holeshot de Ken Roczen, chute de Jeffrey Herlings, Nicolas Aubin cale sur la grille de départ.. Arnaud Tonus second.. problèmes mécaniques pour Searle quelques tours plus loin (fumée au niveau du moteur..).. Casse mécanique de Max Anstie dans le dernier tour..

RIDER BIKE TIME GAP PREV GAP FIRST BEST LAP LAST LAPS
1 K. Roczen (94) KTM 25:10.677 02:03.597 9: 02:08.461 10: 02:07.111 11: 02:09.801
2 G. Paulin (21) YAM 25:17.334 +00:06.657 +00:06.657 02:04.153 9: 02:07.698 10: 02:07.073 11: 02:08.082
3 A. Tonus (7) YAM 25:20.513 +00:03.179 +00:09.836 02:05.405 9: 02:07.396 10: 02:07.382 11: 02:07.998

4 T. Searle (100) KAW 25:29.507 +00:08.994 +00:18.830 02:05.349 9: 02:07.464 10: 02:08.546 11: 02:12.629
5 J. v. Horebeek (89) KTM 25:35.054 +00:05.547 +00:24.377 02:05.897 9: 02:07.858 10: 02:09.400 11: 02:10.262
6 V. Teillet (37) SUZ 25:35.569 +00:00.515 +00:24.892 02:06.343 9: 02:08.367 10: 02:08.484 11: 02:06.343
7 J. Roelants (34) KTM 25:43.654 +00:08.085 +00:32.977 02:06.859 9: 02:06.859 10: 02:09.109 11: 02:12.498
8 J. Nicholls (45) KTM 25:59.524 +00:15.870 +00:48.847 02:07.419 9: 02:10.377 10: 02:11.152 11: 02:11.151
9 J. Tixier (911) KTM 26:06.518 +00:06.994 +00:55.841 02:08.877 9: 02:10.325 10: 02:10.355 11: 02:10.518
10 A. J. B. Oliva (17) KTM 26:08.280 +00:01.762 +00:57.603 02:09.205 9: 02:09.625 10: 02:10.894 11: 02:09.783
11 H. Kullas (151) YAM 26:11.468 +00:03.188 +01:00.791 02:09.345 9: 02:10.384 10: 02:10.524 11: 02:10.202
12 E. Banks-Browne (44) HON 26:25.756 +00:14.288 +01:15.079 02:09.533 9: 02:13.424 10: 02:12.389 11: 02:14.339
13 P. Petrov (152) YAM 26:29.560 +00:03.804 +01:18.883 02:10.237 9: 02:10.643 10: 02:12.582 11: 02:13.967
14 N. Aubin (131) KTM 26:35.418 +00:05.858 +01:24.741 02:10.145 9: 02:10.651 10: 02:10.732 11: 02:11.390
15 N. Triest (590) KTM 26:38.596 +00:03.178 +01:27.919 02:10.688 9: 02:12.472 10: 02:14.557 11: 02:15.773
16 M. Kras (55) SUZ 26:42.375 +00:03.779 +01:31.698 02:10.202 9: 02:14.001 10: 02:13.701 11: 02:14.428
17 P. Rauchenecker (76) KTM 26:42.746 +00:00.371 +01:32.069 02:11.081 9: 02:11.630 10: 02:12.943 11: 02:11.081
18 D. Adam (68) YAM 26:47.658 +00:04.912 +01:36.981 02:11.307 9: 02:13.921 10: 02:14.529 11: 02:16.881
19 E. Heibye (112) KTM 26:49.012 +00:01.354 +01:38.335 02:11.829 9: 02:13.349 10: 02:16.294 11: 02:15.021
20 C. Charlier (430) YAM 26:50.194 +00:01.182 +01:39.517 02:10.698 9: 02:11.014 10: 02:13.028 11: 02:12.023
21 F. Bengtsson (64) KTM 27:02.374 +00:12.180 +01:51.697 02:12.349 9: 02:16.949 10: 02:14.499 11: 02:17.315
22 J. Herlings (84) KTM 27:03.048 +00:00.674 +01:52.371 02:07.970 9: 02:10.247 10: 02:11.137 11: 02:10.611
23 J. Lieber (33) KTM 27:04.611 +00:01.563 +01:53.934 02:13.449 9: 02:14.739 10: 02:15.031 11: 02:15.308
24 J. Cottrell (860) HON 27:05.701 +00:01.090 +01:55.024 02:10.978 9: 02:17.110 10: 02:17.398 11: 02:18.416
25 L. Tombs (66) HON 27:07.936 +00:02.235 +01:57.259 02:13.266 9: 02:15.302 10: 02:18.027 11: 02:16.114
26 J. Booker (114) KTM 27:09.441 +00:01.505 +01:58.764 02:12.340 9: 02:15.237 10: 02:16.046 11: 02:16.178
27 L. Söderberg (388) KAW 27:15.484 +00:06.043 +02:04.807 02:13.801 9: 02:14.743 10: 02:14.585 11: 02:13.801
28 R. Justs (195) HON 27:29.969 +00:14.485 +02:19.292 02:14.947 9: 02:14.947 10: 02:16.085 11: 02:20.814
29 I. Monticelli (128) HON 27:33.522 +00:03.553 +02:22.845 02:12.933 9: 02:16.614 10: 02:13.970 11: 02:35.214
30 S. Mitchell (550) KTM 25:23.563 -1 lap -1 lap 02:15.237 8: 02:18.333 9: 02:17.912 10: 02:24.027
31 G. D. Segato (262) KTM 25:26.565 -1 lap -1 lap 02:15.367 8: 02:15.367 9: 02:18.660 10: 02:19.159
32 S. Edmonds (162) TM 25:30.579 -1 lap -1 lap 02:14.030 8: 02:19.384 9: 02:20.000 10: 02:27.283
33 M. Cociu (611) HON 25:36.742 -1 lap -1 lap 02:16.721 8: 02:16.721 9: 02:19.888 10: 02:24.019
34 V. Golovkin (300) KAW 25:48.709 -1 lap -1 lap 02:17.564 8: 02:21.660 9: 02:22.356 10: 02:22.065
35 M. Anstie (99) KAW 21:19.440 -2 laps -2 laps

DIMANCHE

MX2 – Warm-up – Classification
Pos Nr Rider Nat. Fed. Bike Bestlaptime in lap Diff. First Diff. Prev. Tot. Laps Speed

1 21 Paulin, Gautier FRA MCM Yamaha 2:08.819 5 0:00.000 0:00.000 6 45.832
2 7 Tonus, Arnaud SUI FMS Yamaha 2:08.956 5 0:00.137 0:00.137 7 45.783
3 100 Searle, Tommy GBR ACU Kawasaki 2:09.047 7 0:00.228 0:00.091 7 45.751
4 94 Roczen, Ken GER DMSB KTM 2:09.311 5 0:00.492 0:00.264 6 45.657
5 37 Teillet, Valentin FRA FFM Suzuki 2:10.167 5 0:01.348 0:00.856 6 45.357
6 430 Charlier, Christophe FRA FFM Yamaha 2:10.741 4 0:01.922 0:00.574 4 45.158

7 45 Nicholls, Jake GBR ACU KTM 2:11.187 5 0:02.368 0:00.446 5 45.004
8 911 Tixier, Jordi FRA FFM KTM 2:11.259 5 0:02.440 0:00.072 6 44.98
9 34 Roelants, Joel BEL FMB KTM 2:11.436 8 0:02.617 0:00.177 8 44.919
10 84 Herlings, Jeffrey NED KNMV KTM 2:11.665 6 0:02.846 0:00.229 7 44.841
11 131 Aubin, Nicolas FRA FFM KTM 2:12.011 5 0:03.192 0:00.346 6 44.724
12 89 van Horebeek, Jeremy BEL FMB KTM 2:12.155 3 0:03.336 0:00.144 6 44.675
13 64 Bengtsson, Filip SWE SVEMO KTM 2:13.004 6 0:04.185 0:00.849 7 44.39
14 17 Butron Oliva, Antonio Jose ESP RFME KTM 2:14.614 7 0:05.795 0:01.610 7 43.859
15 152 Petrov, Petar BUL BMF Yamaha 2:14.678 6 0:05.859 0:00.064 6 43.838
16 76 Rauchenecker, Pascal AUT OeAMTC KTM 2:14.751 6 0:05.932 0:00.073 7 43.814
17 112 Heibye, Even NOR NMF KTM 2:15.140 3 0:06.321 0:00.389 3 43.688
18 151 Kullas, Harri FIN SML Yamaha 2:15.448 4 0:06.629 0:00.308 7 43.589
19 590 Triest, Nick BEL FMB KTM 2:16.002 5 0:07.183 0:00.554 5 43.411
20 68 Adam, David FRA FFM Yamaha 2:16.340 5 0:07.521 0:00.338 6 43.304
21 195 Justs, Roberts LAT LAMSF Honda 2:16.359 4 0:07.540 0:00.019 7 43.297
22 44 Banks-Browne, Elliott GBR ACU Honda 2:16.616 2 0:07.797 0:00.257 3 43.216
23 55 Kras, Mike NED KNMV Suzuki 2:16.688 5 0:07.869 0:00.072 6 43.193
24 33 Lieber, Julien BEL MUL KTM 2:16.692 3 0:07.873 0:00.004 7 43.192
25 128 Monticelli, Ivo ITA FMI Honda 2:16.798 4 0:07.979 0:00.106 6 43.159
26 262 Del Segato, Giacomo ITA FMI KTM 2:17.966 5 0:09.147 0:01.168 6 42.793
27 99 Anstie, Max GBR AMA Kawasaki 2:18.150 5 0:09.331 0:00.184 6 42.736..

1 ÈRE MANCHE MX2

Holeshot de Ken Roczen.. Horebeek second, Teillet ’3.. Paulin passe Teillet dans une descente.. Roelants va se placer en seconde position.. Arnaud Tonus va aller à la faute à 23 mn de la fin de manche.. Paulin passe 3 Ème à 16 min.. Arnaud Tonus va à nouveau chuter à 14 min.. Paulin va se faire passer Searle à 6 min..

MX2 – Grand Prix Race 1 – Classification
Pos Nr Rider Nat. Fed. Bike Time laps Diff. First Diff. Prev. Bestlaptime in lap Speed

1 94 Roczen, Ken GER DMSB KTM 40:40.977 18 0:00.000 0:00.000 2:06.106 5 46.818
2 100 Searle, Tommy GBR ACU Kawasaki 40:51.180 18 0:10.203 0:10.203 2:06.721 6 46.591
3 34 Roelants, Joel BEL FMB KTM 40:53.876 18 0:12.899 0:02.696 2:05.843 2 46.916
4 21 Paulin, Gautier FRA MCM Yamaha 41:09.985 18 0:29.008 0:16.109 2:06.578 8 46.643
5 37 Teillet, Valentin FRA FFM Suzuki 41:23.657 18 0:42.680 0:13.672 2:08.427 5 45.972

6 89 van Horebeek, Jeremy BEL FMB KTM 41:34.329 18 0:53.352 0:10.672 2:07.658 4 46.249
7 84 Herlings, Jeffrey NED KNMV KTM 41:39.702 18 0:58.725 0:05.373 2:07.990 2 46.129
8 45 Nicholls, Jake GBR ACU KTM 41:41.257 18 1:00.280 0:01.555 2:09.286 5 45.666
9 7 Tonus, Arnaud SUI FMS Yamaha 41:53.417 18 1:12.440 0:12.160 2:09.461 2 45.604
10 99 Anstie, Max GBR AMA Kawasaki 41:54.804 18 1:13.827 0:01.387 2:09.478 10 45.598
11 430 Charlier, Christophe FRA FFM Yamaha 41:57.950 18 1:16.973 0:03.146 2:10.046 5 45.399
12 911 Tixier, Jordi FRA FFM KTM 42:07.421 18 1:26.444 0:09.471 2:10.316 5 45.305

13 151 Kullas, Harri FIN SML Yamaha 42:10.751 18 1:29.774 0:03.330 2:11.515 12 44.892
14 131 Aubin, Nicolas FRA FFM KTM 42:23.768 18 1:42.791 0:13.017 2:10.592 3 45.21
15 44 Banks-Browne, Elliott GBR ACU Honda 42:32.937 18 1:51.960 0:09.169 2:11.116 4 45.029
16 112 Heibye, Even NOR NMF KTM 42:51.569 18 2:10.592 0:18.632 2:12.739 5 44.478
17 76 Rauchenecker, Pascal AUT OeAMTC KTM 43:06.977 18 2:26.000 0:15.408 2:12.445 2 44.577
18 152 Petrov, Petar BUL BMF Yamaha 40:58.878 17 1 lap 1 lap 2:12.715 3 44.486
19 64 Bengtsson, Filip SWE SVEMO KTM 41:12.639 17 1 lap 0:13.761 2:13.805 11 44.124
20 55 Kras, Mike NED KNMV Suzuki 41:14.565 17 1 lap 0:01.926 2:14.787 2 43.802
21 388 Söderberg, Ludvig FIN SML Kawasaki 41:16.604 17 1 lap 0:02.039 2:14.871 4 43.775
22 68 Adam, David FRA FFM Yamaha 41:18.066 17 1 lap 0:01.462 2:14.279 3 43.968
23 33 Lieber, Julien BEL MUL KTM 41:23.092 17 1 lap 0:05.026 2:14.409 9 43.926
24 128 Monticelli, Ivo ITA FMI Honda 41:41.563 17 1 lap 0:18.471 2:14.999 6 43.734
25 262 Del Segato, Giacomo ITA FMI KTM 41:56.316 17 1 lap 0:14.753 2:16.369 5 43.294
26 114 Booker, Jordan GBR ACU KTM 42:08.301 17 1 lap 0:11.985 2:15.281 6 43.642
27 550 Mitchell, Sean ZIM ZMSF KTM 42:22.466 17 1 lap 0:14.165 2:17.780 3 42.851
28 195 Justs, Roberts LAT LAMSF Honda 42:24.481 17 1 lap 0:02.015 2:16.309 2 43.313
29 611 Cociu, Mihail MDA FRM Honda 42:26.252 17 1 lap 0:01.771 2:18.934 8 42.495
30 66 Tombs, Lewis GBR ACU Honda 42:34.038 17 1 lap 0:07.786 2:16.787 5 43.162
31 300 Golovkin, Viacheslav RUS LAMSF Kawasaki 42:38.092 17 1 lap 0:04.054 2:19.481 6 42.328
32 14 Strydom, Damon GBR ACU KTM 41:22.169 16 2 laps 1 lap 2:20.083 1 42.146
33 860 Cottrell, James GBR ACU Honda 23:06.671 9 9 laps 7 laps 2:13.053 1 44.373
34 17 Butron Oliva, Antonio Jose ESP RFME KTM 23:36.682 9 9 laps 0:30.011 2:11.480 2 44.904
35 162 Edmonds, Stuart IRL MCUI TM 21:21.465 8 10 laps 1 lap 2:13.625 4 44.183
36 590 Triest, Nick BEL FMB KTM 20:04.390 7 11 laps 1 lap 2:14.532 3 43.885

2 ÈME MANCHE MX2

Holeshot de Ken Roczen.. Gautier Paulin assez loin remonte fort.. Valentin Teillet pratique son effort à 10 min du début de course.. Il abandonnera quelques minutes plus tard sur casse mécanique (chaîne cassée..).. Abandon de Roelants à 22 min de la fin de manche..

MX2 – Grand Prix Race 2 – Classification
Pos Nr Rider Nat. Fed. Bike Time laps Diff. First Diff. Prev. Bestlaptime in lap Speed

1 94 Roczen, Ken GER DMSB KTM 41:04.388 18 0:00.000 0:00.000 2:07.225 3 46.406
2 100 Searle, Tommy GBR ACU Kawasaki 41:18.146 18 0:13.758 0:13.758 2:07.824 2 46.189
3 84 Herlings, Jeffrey NED KNMV KTM 41:22.363 18 0:17.975 0:04.217 2:07.723 2 46.225
4 21 Paulin, Gautier FRA MCM Yamaha 41:46.554 18 0:42.166 0:24.191 2:07.475 8 46.315
5 7 Tonus, Arnaud SUI FMS Yamaha 41:57.419 18 0:53.031 0:10.865 2:09.792 2 45.488

6 45 Nicholls, Jake GBR ACU KTM 41:59.882 18 0:55.494 0:02.463 2:10.404 7 45.275
7 430 Charlier, Christophe FRA FFM Yamaha 42:16.302 18 1:11.914 0:16.420 2:10.950 3 45.086
8 99 Anstie, Max GBR AMA Kawasaki 42:33.747 18 1:29.359 0:17.445 2:12.170 5 44.67
9 911 Tixier, Jordi FRA FFM KTM 42:46.484 18 1:42.096 0:12.737 2:10.760 3 45.151
10 151 Kullas, Harri FIN SML Yamaha 42:52.154 18 1:47.766 0:05.670 2:12.969 5 44.401
11 17 Butron Oliva, Antonio Jose ESP RFME KTM 43:00.929 18 1:56.541 0:08.775 2:13.328 6 44.282
12 76 Rauchenecker, Pascal AUT OeAMTC KTM 43:03.475 18 1:59.087 0:02.546 2:14.080 5 44.033
13 131 Aubin, Nicolas FRA FFM KTM 43:13.773 18 2:09.385 0:10.298 2:12.415 6 44.587
14 590 Triest, Nick BEL FMB KTM 41:12.182 17 1 lap 1 lap 2:13.434 8 44.247
15 64 Bengtsson, Filip SWE SVEMO KTM 41:28.141 17 1 lap 0:15.959 2:14.539 9 43.883
16 152 Petrov, Petar BUL BMF Yamaha 41:43.416 17 1 lap 0:15.275 2:14.682 8 43.837
17 388 Söderberg, Ludvig FIN SML Kawasaki 41:54.835 17 1 lap 0:11.419 2:15.782 5 43.481
18 128 Monticelli, Ivo ITA FMI Honda 42:01.773 17 1 lap 0:06.938 2:16.485 2 43.258
19 55 Kras, Mike NED KNMV Suzuki 42:04.789 17 1 lap 0:03.016 2:16.799 6 43.158
20 66 Tombs, Lewis GBR ACU Honda 42:08.246 17 1 lap 0:03.457 2:17.730 1 42.866
21 33 Lieber, Julien BEL MUL KTM 42:09.373 17 1 lap 0:01.127 2:16.597 5 43.222
22 114 Booker, Jordan GBR ACU KTM 42:55.539 17 1 lap 0:46.166 2:19.190 11 42.417
23 262 Del Segato, Giacomo ITA FMI KTM 43:06.350 17 1 lap 0:10.811 2:19.507 6 42.32
24 550 Mitchell, Sean ZIM ZMSF KTM 41:11.656 16 2 laps 1 lap 2:18.593 4 42.6
25 300 Golovkin, Viacheslav RUS LAMSF Kawasaki 41:15.025 16 2 laps 0:03.369 2:22.383 6 41.466
26 611 Cociu, Mihail MDA FRM Honda 34:31.225 13 5 laps 3 laps 2:22.973 5 41.295
27 14 Strydom, Damon GBR ACU KTM 32:46.151 12 6 laps 1 lap 2:21.042 1 41.86
28 34 Roelants, Joel BEL FMB KTM 24:35.466 10 8 laps 2 laps 2:09.100 6 45.732
29 37 Teillet, Valentin FRA FFM Suzuki 17:23.400 7 11 laps 3 laps 2:08.719 6 45.867
30 195 Justs, Roberts LAT LAMSF Honda 20:57.475 7 11 laps 3:34.075 2:16.691 2 43.192
31 89 van Horebeek, Jeremy BEL FMB KTM 15:33.752 6 12 laps 1 lap 2:10.281 2 45.317
32 162 Edmonds, Stuart IRL MCUI TM 12:07.403 4 14 laps 2 laps 2:18.587 2 42.601
33 112 Heibye, Even NOR NMF KTM 9:34.384 3 15 laps 1 lap 2:17.135 2 43.052
34 68 Adam, David FRA FFM Yamaha 2:47.379 0 18 laps 3 laps 0:00.000 0 0

MX2 – GP Classification
Pos Nr Rider Nat. Fed. Bike Race 1 Race 2 Total

1 94 Roczen, Ken GER DMSB KTM 25 25 50
2 100 Searle, Tommy GBR ACU Kawasaki 22 22 44
3 21 Paulin, Gautier FRA MCM Yamaha 18 18 36
4 84 Herlings, Jeffrey NED KNMV KTM 14 20 34
5 7 Tonus, Arnaud SUI FMS Yamaha 12 16 28
6 45 Nicholls, Jake GBR ACU KTM 13 15 28
7 430 Charlier, Christophe FRA FFM Yamaha 10 14 24
8 99 Anstie, Max GBR AMA Kawasaki 11 13 24
9 911 Tixier, Jordi FRA FFM KTM 9 12 21
10 34 Roelants, Joel BEL FMB KTM 20 0 20
11 151 Kullas, Harri FIN SML Yamaha 8 11 19
12 37 Teillet, Valentin FRA FFM Suzuki 16 0 16
13 131 Aubin, Nicolas FRA FFM KTM 7 8 15

14 89 van Horebeek, Jeremy BEL FMB KTM 15 0 15
15 76 Rauchenecker, Pascal AUT OeAMTC KTM 4 9 13
16 17 Butron Oliva, Antonio Jose ESP RFME KTM 0 10 10
17 64 Bengtsson, Filip SWE SVEMO KTM 2 6 8
18 152 Petrov, Petar BUL BMF Yamaha 3 5 8
19 590 Triest, Nick BEL FMB KTM 0 7 7
20 44 Banks-Browne, Elliott GBR ACU Honda 6 0 6..

MX2 – World Championship Classification
Pos Nr Rider Nat. Total BUL NED USA BRA FRA POR ESP SWE GER LAT BEL CZE GBR EUR ITA

1 94 Roczen, Ken GER 590 25-25 22-22 25-25 25-22 25-10 25-0 25-25 25-25 25-20 25-25 22-22 25-25 25-25 - - - -
2 84 Herlings, J. NED 547 16-20 25-25 22-22 22-25 14-22 22-22 20-18 20-22 22-18 20-22 25-25 22-22 14-20 - - - -
3 100 Searle, Tommy GBR 479 22-22 20-20 16-20 18-18 18-25 0-25 22-22 0-18 20-22 22-20 15-15 15-20 22-22 - - - -
4 21 Paulin, G. FRA 425 20-14 16-15 15-0 20-20 22-18 16-20 18-20 22-20 18-25 13-11 14-16 0-16 18-18 - - - -
5 7 Tonus, Arnaud SUI 353 18-13 18-18 14-0 14-13 16-14 10-18 15-16 15-13 15-16 18-0 11-10 12-18 12-16 - - - -
6 99 Anstie, Max GBR 342 13-15 11-12 20-16 15-14 4-15 18-14 0-0 18-16 3-11 16-18 18-18 18-15 11-13 - - - -
7 338 Osborne, Z. USA 295 14-18 15-13 12-18 16-16 20-20 20-16 0-15 10-11 16-15 14-16 - - - - - - - - - -
8 151 Kullas, Harri FIN 287 11-7 14-14 18-10 10-12 11-12 11-12 11-11 5-10 8-10 12-15 12-13 8-11 8-11 - - - -
9 131 Aubin, Nicolas FRA 242 12-12 12-0 9-14 7-7 15-16 5-13 16-13 12-15 14-0 15-0 0-0 20-0 7-8 - - - -
10 34 Roelants, Joel BEL 226 10-9 13-16 7-12 13-10 13-11 15-9 14-14 0-0 - - - - 0-14 14-12 20-0 - - - -
11 430 Charlier, C. FRA 203 7-11 7-11 13-13 12-15 0-13 13-15 - - 14-14 12-0 0-0 - - 9-0 10-14 - - - -..

VMX – Race 1 – Classification
Pos Nr Rider Nat. Fed. Bike Time laps Diff. First Diff. Prev. Bestlaptime in lap Speed

1 200 Mercer, Philip GBR ACU KTM 25:33.401 10 0:00.000 0:00.000 2:16.112 8 43.376
2 32 Lheriteau, Christophe FRA FFM Kawasaki 25:44.255 10 0:10.854 0:10.854 2:17.472 7 42.947
3 36 Hanson, Greg GBR ACU Kawasaki 25:50.130 10 0:16.729 0:05.875 2:18.572 3 42.606
4 20 Bal, Pascal BEL FMB Yamaha 25:54.188 10 0:20.787 0:04.058 2:19.536 9 42.312
5 65 Hendrickx, Erwin NED KNMV Honda 25:55.942 10 0:22.541 0:01.754 2:18.287 3 42.694
6 70 Camps, Alfredo ESP RFME Honda 26:00.137 10 0:26.736 0:04.195 2:19.308 7 42.381
7 78 Hunt, Ryan RSA AMA Honda 26:44.069 10 1:10.668 0:43.932 2:22.732 2 41.364
8 242 Gajser, Bogomir SLO AMZS Suzuki 27:42.649 10 2:09.248 0:58.580 2:30.273 4 39.288
9 30 Bergsma, Peter NED KNMV Suzuki 27:49.689 10 2:16.288 0:07.040 2:28.779 1 39.683
10 42 Jakobsson, Roger SWE SVEMO Yamaha 27:54.803 10 2:21.402 0:05.114 2:31.004 6 39.098
11 88 Hellman, Kim FIN SML Honda 26:10.990 9 1 lap 1 lap 2:35.055 2 38.077
12 51 Bellon, Patrick BEL FMB Honda 26:39.204 9 1 lap 0:28.214 2:35.188 2 38.044
13 62 Meroli, Roberto ITA FMI KTM 27:38.329 9 1 lap 0:59.125 2:43.229 2 36.17
14 25 Massara, Matteo ITA FMI KTM 27:45.568 9 1 lap 0:07.239 2:42.182 7 36.404
15 24 Maris, Alain BEL FMB Suzuki 28:25.443 9 1 lap 0:39.875 2:47.693 7 35.207
16 221 Caillouet, Sebastien FRA FFM Yamaha 25:35.958 8 2 laps 1 lap 2:42.010 1 36.442
17 94 Kokk, Marko EST EMF KTM 25:38.272 8 2 laps 0:02.314 2:47.418 1 35.265
18 82 Arzani, Giorgio ITA FMI Honda 26:17.847 8 2 laps 0:39.575 2:44.805 6 35.824
19 222 Medico, Jean-Pierre FRA FFM Yamaha 26:28.500 8 2 laps 0:10.653 2:52.612 6 34.204
20 224 Grandi Gian, Guido ITA FMI Honda 28:01.556 8 2 laps 1:33.056 2:58.326 1 33.108
21 96 Strange, Peter GBR ACU Yamaha 28:08.123 8 2 laps 0:06.567 3:03.534 3 32.168
22 18 Fry, Adam GBR ACU Kawasaki 26:59.767 7 3 laps 1 lap 3:15.981 1 30.125
23 93 Watson, Graham GBR ACU Suzuki 16:56.122 3 7 laps 4 laps 3:10.330 1 31.02

MX – Race 2 – Classification
Pos Nr Rider Nat. Fed. Bike Time laps Diff. First Diff. Prev. Bestlaptime in lap Speed

1 200 Mercer, Philip GBR ACU KTM 25:25.285 10 0:00.000 0:00.000 2:17.236 9 43.021
2 32 Lheriteau, Christophe FRA FFM Kawasaki 25:28.346 10 0:03.061 0:03.061 2:17.530 8 42.929
3 65 Hendrickx, Erwin NED KNMV Honda 26:10.960 10 0:45.675 0:42.614 2:18.931 2 42.496
4 70 Camps, Alfredo ESP RFME Honda 26:27.383 10 1:02.098 0:16.423 2:21.980 7 41.583
5 78 Hunt, Ryan RSA AMA Honda 26:36.276 10 1:10.991 0:08.893 2:20.835 2 41.921
6 20 Bal, Pascal BEL FMB Yamaha 27:27.305 10 2:02.020 0:51.029 2:19.386 1 42.357
7 242 Gajser, Bogomir SLO AMZS Suzuki 27:32.527 10 2:07.242 0:05.222 2:27.183 3 40.113
8 30 Bergsma, Peter NED KNMV Suzuki 27:53.675 10 2:28.390 0:21.148 2:27.704 4 39.972
9 42 Jakobsson, Roger SWE SVEMO Yamaha 28:07.347 10 2:42.062 0:13.672 2:27.899 4 39.919
10 88 Hellman, Kim FIN SML Honda 25:31.653 9 1 lap 1 lap 2:29.565 3 39.474
11 51 Bellon, Patrick BEL FMB Honda 27:09.889 9 1 lap 1:38.236 2:33.814 1 38.384
12 221 Caillouet, Sebastien FRA FFM Yamaha 27:16.871 9 1 lap 0:06.982 2:41.996 8 36.445
13 25 Massara, Matteo ITA FMI KTM 27:20.767 9 1 lap 0:03.896 2:41.872 8 36.473
14 62 Meroli, Roberto ITA FMI KTM 27:24.138 9 1 lap 0:03.371 2:41.337 8 36.594
15 94 Kokk, Marko EST EMF KTM 25:37.847 8 2 laps 1 lap 2:47.575 3 35.232
16 24 Maris, Alain BEL FMB Suzuki 25:44.688 8 2 laps 0:06.841 2:45.787 3 35.612
17 82 Arzani, Giorgio ITA FMI Honda 25:45.439 8 2 laps 0:00.751 2:49.913 2 34.747
18 222 Medico, Jean-Pierre FRA FFM Yamaha 26:21.719 8 2 laps 0:36.280 2:53.704 3 33.989
19 96 Strange, Peter GBR ACU Yamaha 27:00.808 8 2 laps 0:39.089 2:55.923 7 33.56
20 224 Grandi Gian, Guido ITA FMI Honda 26:51.772 7 3 laps 1 lap 2:59.290 1 32.93
21 93 Watson, Graham GBR ACU Suzuki 27:44.098 7 3 laps 0:52.326 3:24.496 1 28.871
22 36 Hanson, Greg GBR ACU Kawasaki 12:07.917 4 6 laps 3 laps 2:23.157 3 41.241
23 18 Fry, Adam GBR ACU Kawasaki 5:32.157 0 10 laps 4 laps 0:00.000 0 0

VMX – Overall Classification
Pos Nr Rider Nat. Fed. Bike Race 1 Race 2 Total

1 200 Mercer, Philip GBR ACU KTM 25 25 50
2 32 Lheriteau, Christophe FRA FFM Kawasaki 22 22 44
3 65 Hendrickx, Erwin NED KNMV Honda 16 20 36
4 70 Camps, Alfredo ESP RFME Honda 15 18 33
5 20 Bal, Pascal BEL FMB Yamaha 18 15 33
6 78 Hunt, Ryan RSA AMA Honda 14 16 30
7 242 Gajser, Bogomir SLO AMZS Suzuki 13 14 27
8 30 Bergsma, Peter NED KNMV Suzuki 12 13 25
9 42 Jakobsson, Roger SWE SVEMO Yamaha 11 12 23
10 88 Hellman, Kim FIN SML Honda 10 11 21
11 36 Hanson, Greg GBR ACU Kawasaki 20 0 20
12 51 Bellon, Patrick BEL FMB Honda 9 10 19
13 25 Massara, Matteo ITA FMI KTM 7 8 15
14 62 Meroli, Roberto ITA FMI KTM 8 7 15
15 221 Caillouet, Sebastien FRA FFM Yamaha 5 9 14
16 24 Maris, Alain BEL FMB Suzuki 6 5 11
17 94 Kokk, Marko EST EMF KTM 4 6 10
18 82 Arzani, Giorgio ITA FMI Honda 3 4 7
19 222 Medico, Jean-Pierre FRA FFM Yamaha 2 3 5..

VMX – Championship Classification
Pos Nr Rider Nat. Total NED USA LAT BEL GBR EUR

1 1 Nilsson, Mats SWE 145 25-25 20-25 25-25 - - - - - -
2 20 Bal, Pascal BEL 144 20-22 - - 14-15 20-20 18-15 - -
3 70 Camps, Alfredo ESP 127 11-9 14-14 16-7 10-13 15-18 - -
4 200 Mercer, Philip GBR 126 - - - - 20-20 18-18 25-25 - -
5 42 Jakobsson, R. SWE 123 8-13 11-16 10-13 14-15 11-12 - -
6 65 Hendrickx, E. NED 119 0-0 - - 18-18 22-25 16-20 - -
7 88 Hellman, Kim FIN 88 7-12 5-9 8-6 12-8 10-11 - -
8 178 Hofstede, K. NED 87 22-18 - - - - 25-22 - - - -
9 32 Lheriteau, C. FRA 82 18-20 - - - - - - 22-22 - -
10 30 Bergsma, Peter NED 59 4-14 - - 6-10 0-0 12-13 - -
11 28 Lewis, Phil GBR 59 5-3 8-13 7-8 8-7 - - - -
12 10 Dijkstra, Koos NED 57 10-15 - - - - 16-16 - - - -
13 242 Gajser, B. SLO 57 3-6 - - - - 9-12 13-14 - -
14 78 Hunt, Ryan RSA 56 - - 18-8 - - - - 14-16 - -
15 15 Dubach, Doug USA 45 - - 25-20 - - - - - - - -
16 13 Kahro, Valdur EST 45 16-16 13-0 - - - - - - - -
17 35 Vehkonen, Ismo FIN 44 - - - - 22-22 - - - - - -
18 9 King, Darryll NZL 44 - - 22-22 - - - - - - - -
19 51 Bellon, P. BEL 41 - - - - - - 11-11 9-10 - -
20 12 Bruggen, H. NED 33 2-4 - - - - 13-14 - - - -
21 611 Wynne, Shawn USA 30 - - 15-15 - - - - - - - -
22 103 Baltgalvis, R. LAT 29 - - - - 13-16 - - - - - -
23 40 Barda, Kevin USA 26 - - 16-10 - - - - - - - -
24 74 Samarskiy, M. RUS 26 - - - - 12-14 - - - - - -
25 221 Caillouet, S. FRA 26 0-0 4-0 0-1 3-4 5-9 - ..

(Photos : Ray Archer/KTM)

A voir aussi :

Le commentaires sont fermés.